sensor_id;sensor_type;location;lat;lon;timestamp;pressure;altitude;pressure_sealevel;temperature;humidity
51053;BME280;37093;37.716;-122.060;2023-04-08T00:00:49;99968.62;;;16.56;57.95
51053;BME280;37093;37.716;-122.060;2023-04-08T00:03:18;99969.36;;;16.25;57.40
51053;BME280;37093;37.716;-122.060;2023-04-08T00:05:47;99975.47;;;16.34;59.11
51053;BME280;37093;37.716;-122.060;2023-04-08T00:08:16;99978.19;;;16.18;58.35
51053;BME280;37093;37.716;-122.060;2023-04-08T00:10:44;99977.64;;;15.95;61.24
51053;BME280;37093;37.716;-122.060;2023-04-08T00:13:13;99977.90;;;16.41;58.89
51053;BME280;37093;37.716;-122.060;2023-04-08T00:15:41;99979.88;;;16.49;57.12
51053;BME280;37093;37.716;-122.060;2023-04-08T00:18:10;99972.71;;;16.89;55.79
51053;BME280;37093;37.716;-122.060;2023-04-08T00:20:38;99974.34;;;17.09;54.16
51053;BME280;37093;37.716;-122.060;2023-04-08T00:23:07;99986.15;;;16.86;56.05
51053;BME280;37093;37.716;-122.060;2023-04-08T00:25:35;99981.44;;;16.17;56.18
51053;BME280;37093;37.716;-122.060;2023-04-08T00:28:04;99978.37;;;15.86;58.04
51053;BME280;37093;37.716;-122.060;2023-04-08T00:30:32;99981.58;;;15.71;58.30
51053;BME280;37093;37.716;-122.060;2023-04-08T00:33:00;99979.42;;;15.73;57.30
51053;BME280;37093;37.716;-122.060;2023-04-08T00:35:29;99981.53;;;15.83;57.76
51053;BME280;37093;37.716;-122.060;2023-04-08T00:37:58;99988.64;;;15.95;57.40
51053;BME280;37093;37.716;-122.060;2023-04-08T00:40:26;99990.71;;;15.70;57.60
51053;BME280;37093;37.716;-122.060;2023-04-08T00:42:56;99995.03;;;15.70;58.39
51053;BME280;37093;37.716;-122.060;2023-04-08T00:45:24;99997.42;;;15.15;58.33
51053;BME280;37093;37.716;-122.060;2023-04-08T00:47:53;99995.91;;;15.19;59.63
51053;BME280;37093;37.716;-122.060;2023-04-08T00:50:22;99994.02;;;14.91;59.24
51053;BME280;37093;37.716;-122.060;2023-04-08T00:52:50;99991.93;;;15.06;59.36
51053;BME280;37093;37.716;-122.060;2023-04-08T00:55:20;99996.06;;;14.83;58.04
51053;BME280;37093;37.716;-122.060;2023-04-08T00:57:49;99998.12;;;14.65;59.54
51053;BME280;37093;37.716;-122.060;2023-04-08T01:00:19;99993.85;;;15.41;57.01
51053;BME280;37093;37.716;-122.060;2023-04-08T01:02:54;99997.42;;;14.74;58.77
51053;BME280;37093;37.716;-122.060;2023-04-08T01:05:32;100004.82;;;14.59;59.90
51053;BME280;37093;37.716;-122.060;2023-04-08T01:08:05;100010.70;;;14.59;60.95
51053;BME280;37093;37.716;-122.060;2023-04-08T01:10:37;100013.76;;;14.01;61.13
51053;BME280;37093;37.716;-122.060;2023-04-08T01:13:09;100012.51;;;14.60;60.17
51053;BME280;37093;37.716;-122.060;2023-04-08T01:15:39;100017.61;;;14.94;60.09
51053;BME280;37093;37.716;-122.060;2023-04-08T01:18:12;100016.27;;;14.36;60.03
51053;BME280;37093;37.716;-122.060;2023-04-08T01:20:42;100018.76;;;14.11;61.42
51053;BME280;37093;37.716;-122.060;2023-04-08T01:23:18;100019.83;;;15.12;59.57
51053;BME280;37093;37.716;-122.060;2023-04-08T01:25:49;100023.10;;;14.92;57.80
51053;BME280;37093;37.716;-122.060;2023-04-08T01:28:21;100023.32;;;15.43;57.63
51053;BME280;37093;37.716;-122.060;2023-04-08T01:30:51;100019.76;;;15.04;58.12
51053;BME280;37093;37.716;-122.060;2023-04-08T01:33:23;100016.63;;;15.72;57.40
51053;BME280;37093;37.716;-122.060;2023-04-08T01:35:52;100016.54;;;15.08;57.06
51053;BME280;37093;37.716;-122.060;2023-04-08T01:38:23;100026.22;;;15.00;58.02
51053;BME280;37093;37.716;-122.060;2023-04-08T01:40:53;100034.04;;;15.18;57.09
51053;BME280;37093;37.716;-122.060;2023-04-08T01:43:22;100034.42;;;15.04;58.01
51053;BME280;37093;37.716;-122.060;2023-04-08T01:45:52;100037.33;;;15.38;56.39
51053;BME280;37093;37.716;-122.060;2023-04-08T01:48:23;100039.86;;;14.81;58.83
51053;BME280;37093;37.716;-122.060;2023-04-08T01:50:52;100039.97;;;15.47;56.47
51053;BME280;37093;37.716;-122.060;2023-04-08T01:53:23;100035.04;;;15.91;55.06
51053;BME280;37093;37.716;-122.060;2023-04-08T01:55:56;100036.05;;;15.81;54.98
51053;BME280;37093;37.716;-122.060;2023-04-08T01:58:27;100034.72;;;15.39;55.78
51053;BME280;37093;37.716;-122.060;2023-04-08T02:00:59;100031.10;;;15.99;55.15
51053;BME280;37093;37.716;-122.060;2023-04-08T02:03:28;100031.96;;;15.97;53.50
51053;BME280;37093;37.716;-122.060;2023-04-08T02:05:57;100031.66;;;16.03;54.81
51053;BME280;37093;37.716;-122.060;2023-04-08T02:08:26;100037.64;;;16.04;54.13
51053;BME280;37093;37.716;-122.060;2023-04-08T02:10:55;100038.60;;;16.03;53.16
51053;BME280;37093;37.716;-122.060;2023-04-08T02:13:23;100042.78;;;15.82;54.64
51053;BME280;37093;37.716;-122.060;2023-04-08T02:15:59;100040.28;;;15.91;53.61
51053;BME280;37093;37.716;-122.060;2023-04-08T02:18:31;100045.91;;;15.69;55.30
51053;BME280;37093;37.716;-122.060;2023-04-08T02:21:08;100049.64;;;14.94;55.08
51053;BME280;37093;37.716;-122.060;2023-04-08T02:23:40;100051.21;;;15.53;54.31
51053;BME280;37093;37.716;-122.060;2023-04-08T02:26:13;100052.99;;;15.45;55.01
51053;BME280;37093;37.716;-122.060;2023-04-08T02:28:43;100053.89;;;15.00;56.64
51053;BME280;37093;37.716;-122.060;2023-04-08T02:31:15;100058.48;;;14.87;55.60
51053;BME280;37093;37.716;-122.060;2023-04-08T02:33:44;100056.81;;;15.76;54.35
51053;BME280;37093;37.716;-122.060;2023-04-08T02:36:14;100061.21;;;15.05;55.30
51053;BME280;37093;37.716;-122.060;2023-04-08T02:38:47;100064.62;;;15.26;55.20
51053;BME280;37093;37.716;-122.060;2023-04-08T02:41:15;100070.87;;;15.29;55.08
51053;BME280;37093;37.716;-122.060;2023-04-08T02:43:44;100068.75;;;14.81;55.05
51053;BME280;37093;37.716;-122.060;2023-04-08T02:46:13;100075.49;;;15.19;55.21
51053;BME280;37093;37.716;-122.060;2023-04-08T02:48:42;100069.86;;;15.24;54.37
51053;BME280;37093;37.716;-122.060;2023-04-08T02:51:10;100061.99;;;15.44;53.93
51053;BME280;37093;37.716;-122.060;2023-04-08T02:53:39;100064.65;;;15.14;53.37
51053;BME280;37093;37.716;-122.060;2023-04-08T02:56:10;100060.75;;;15.51;52.89
51053;BME280;37093;37.716;-122.060;2023-04-08T02:58:38;100063.28;;;15.47;52.71
51053;BME280;37093;37.716;-122.060;2023-04-08T03:01:08;100060.80;;;15.73;51.89
51053;BME280;37093;37.716;-122.060;2023-04-08T03:03:36;100062.15;;;16.28;49.34
51053;BME280;37093;37.716;-122.060;2023-04-08T03:06:05;100067.38;;;16.44;50.42
51053;BME280;37093;37.716;-122.060;2023-04-08T03:08:33;100074.77;;;16.31;50.10
51053;BME280;37093;37.716;-122.060;2023-04-08T03:11:02;100075.58;;;16.10;49.51
51053;BME280;37093;37.716;-122.060;2023-04-08T03:13:30;100079.52;;;16.77;48.31
51053;BME280;37093;37.716;-122.060;2023-04-08T03:15:59;100076.35;;;15.93;49.10
51053;BME280;37093;37.716;-122.060;2023-04-08T03:18:27;100077.58;;;16.43;49.42
51053;BME280;37093;37.716;-122.060;2023-04-08T03:20:56;100079.22;;;16.22;49.05
51053;BME280;37093;37.716;-122.060;2023-04-08T03:23:24;100071.12;;;16.45;49.48
51053;BME280;37093;37.716;-122.060;2023-04-08T03:25:53;100074.20;;;16.58;48.97
51053;BME280;37093;37.716;-122.060;2023-04-08T03:28:22;100071.16;;;16.28;49.08
51053;BME280;37093;37.716;-122.060;2023-04-08T03:30:52;100082.52;;;15.78;50.06
51053;BME280;37093;37.716;-122.060;2023-04-08T03:33:19;100082.40;;;15.89;49.95
51053;BME280;37093;37.716;-122.060;2023-04-08T03:35:48;100085.41;;;15.87;50.23
51053;BME280;37093;37.716;-122.060;2023-04-08T03:38:17;100085.00;;;15.77;49.75
51053;BME280;37093;37.716;-122.060;2023-04-08T03:40:45;100091.85;;;16.25;48.63
51053;BME280;37093;37.716;-122.060;2023-04-08T03:43:14;100099.18;;;16.08;47.27
51053;BME280;37093;37.716;-122.060;2023-04-08T03:45:42;100106.47;;;16.10;48.14
51053;BME280;37093;37.716;-122.060;2023-04-08T03:48:11;100110.39;;;16.05;48.38
51053;BME280;37093;37.716;-122.060;2023-04-08T03:50:39;100114.32;;;15.95;48.37
51053;BME280;37093;37.716;-122.060;2023-04-08T03:53:08;100122.61;;;16.18;47.03
51053;BME280;37093;37.716;-122.060;2023-04-08T03:55:37;100126.11;;;15.98;46.83
51053;BME280;37093;37.716;-122.060;2023-04-08T03:58:06;100125.19;;;16.44;46.82
51053;BME280;37093;37.716;-122.060;2023-04-08T04:00:35;100134.25;;;16.16;47.41
51053;BME280;37093;37.716;-122.060;2023-04-08T04:03:04;100141.67;;;16.20;47.32
51053;BME280;37093;37.716;-122.060;2023-04-08T04:05:32;100147.74;;;15.89;46.23
51053;BME280;37093;37.716;-122.060;2023-04-08T04:08:00;100154.42;;;15.96;47.35
51053;BME280;37093;37.716;-122.060;2023-04-08T04:10:29;100158.47;;;15.86;47.71
51053;BME280;37093;37.716;-122.060;2023-04-08T04:12:57;100162.80;;;15.94;46.80
51053;BME280;37093;37.716;-122.060;2023-04-08T04:15:26;100170.04;;;15.51;47.79
51053;BME280;37093;37.716;-122.060;2023-04-08T04:17:54;100176.19;;;15.85;47.68
51053;BME280;37093;37.716;-122.060;2023-04-08T04:20:23;100182.33;;;15.80;47.03
51053;BME280;37093;37.716;-122.060;2023-04-08T04:22:52;100187.06;;;15.70;46.94
51053;BME280;37093;37.716;-122.060;2023-04-08T04:25:20;100188.90;;;15.98;46.09
51053;BME280;37093;37.716;-122.060;2023-04-08T04:27:48;100191.31;;;16.21;46.25
51053;BME280;37093;37.716;-122.060;2023-04-08T04:30:18;100199.28;;;15.80;46.14
51053;BME280;37093;37.716;-122.060;2023-04-08T04:32:47;100194.21;;;16.23;46.50
51053;BME280;37093;37.716;-122.060;2023-04-08T04:35:15;100187.65;;;16.13;45.13
51053;BME280;37093;37.716;-122.060;2023-04-08T04:37:44;100193.85;;;16.11;46.01
51053;BME280;37093;37.716;-122.060;2023-04-08T04:40:12;100197.79;;;15.54;45.82
51053;BME280;37093;37.716;-122.060;2023-04-08T04:42:40;100204.22;;;16.05;46.64
51053;BME280;37093;37.716;-122.060;2023-04-08T04:45:10;100210.24;;;15.61;47.19
51053;BME280;37093;37.716;-122.060;2023-04-08T04:47:38;100212.53;;;15.80;47.51
51053;BME280;37093;37.716;-122.060;2023-04-08T04:50:08;100212.94;;;15.86;46.16
51053;BME280;37093;37.716;-122.060;2023-04-08T04:52:36;100210.83;;;16.21;46.29
51053;BME280;37093;37.716;-122.060;2023-04-08T04:55:05;100207.85;;;16.51;45.53
51053;BME280;37093;37.716;-122.060;2023-04-08T04:57:34;100212.23;;;16.75;44.88
51053;BME280;37093;37.716;-122.060;2023-04-08T05:00:03;100217.61;;;16.57;45.50
51053;BME280;37093;37.716;-122.060;2023-04-08T05:02:31;100221.91;;;16.44;46.17
51053;BME280;37093;37.716;-122.060;2023-04-08T05:05:00;100225.27;;;16.25;46.39
51053;BME280;37093;37.716;-122.060;2023-04-08T05:07:28;100219.27;;;16.47;45.95
51053;BME280;37093;37.716;-122.060;2023-04-08T05:09:56;100213.45;;;16.50;46.32
51053;BME280;37093;37.716;-122.060;2023-04-08T05:12:25;100210.18;;;16.12;45.80
51053;BME280;37093;37.716;-122.060;2023-04-08T05:14:54;100208.64;;;16.28;46.09
51053;BME280;37093;37.716;-122.060;2023-04-08T05:17:23;100213.19;;;15.98;46.35
51053;BME280;37093;37.716;-122.060;2023-04-08T05:19:51;100209.43;;;16.24;47.22
51053;BME280;37093;37.716;-122.060;2023-04-08T05:22:20;100200.83;;;15.94;46.99
51053;BME280;37093;37.716;-122.060;2023-04-08T05:24:48;100193.22;;;16.34;45.65
51053;BME280;37093;37.716;-122.060;2023-04-08T05:27:17;100197.01;;;16.13;46.19
51053;BME280;37093;37.716;-122.060;2023-04-08T05:29:45;100196.13;;;16.08;46.76
51053;BME280;37093;37.716;-122.060;2023-04-08T05:32:14;100190.16;;;16.28;46.02
51053;BME280;37093;37.716;-122.060;2023-04-08T05:34:43;100183.31;;;16.27;46.94
51053;BME280;37093;37.716;-122.060;2023-04-08T05:37:11;100183.91;;;16.39;46.86
51053;BME280;37093;37.716;-122.060;2023-04-08T05:39:39;100177.01;;;16.57;46.26
51053;BME280;37093;37.716;-122.060;2023-04-08T05:42:08;100177.40;;;16.81;45.96
51053;BME280;37093;37.716;-122.060;2023-04-08T05:44:36;100176.73;;;16.90;45.47
51053;BME280;37093;37.716;-122.060;2023-04-08T05:47:05;100180.12;;;16.66;44.95
51053;BME280;37093;37.716;-122.060;2023-04-08T05:49:33;100178.16;;;16.94;44.89
51053;BME280;37093;37.716;-122.060;2023-04-08T05:52:02;100179.87;;;16.92;44.63
51053;BME280;37093;37.716;-122.060;2023-04-08T05:54:30;100181.29;;;16.81;44.53
51053;BME280;37093;37.716;-122.060;2023-04-08T05:56:59;100180.95;;;16.89;44.62
51053;BME280;37093;37.716;-122.060;2023-04-08T05:59:27;100184.91;;;17.00;44.40
51053;BME280;37093;37.716;-122.060;2023-04-08T06:01:55;100190.23;;;16.89;44.61
51053;BME280;37093;37.716;-122.060;2023-04-08T06:04:24;100196.49;;;16.94;44.35
51053;BME280;37093;37.716;-122.060;2023-04-08T06:06:52;100202.66;;;16.86;44.17
51053;BME280;37093;37.716;-122.060;2023-04-08T06:09:21;100195.02;;;16.72;44.40
51053;BME280;37093;37.716;-122.060;2023-04-08T06:11:49;100196.09;;;16.92;44.37
51053;BME280;37093;37.716;-122.060;2023-04-08T06:14:18;100196.07;;;16.54;45.23
51053;BME280;37093;37.716;-122.060;2023-04-08T06:16:47;100191.50;;;16.04;46.08
51053;BME280;37093;37.716;-122.060;2023-04-08T06:19:15;100190.08;;;15.66;46.64
51053;BME280;37093;37.716;-122.060;2023-04-08T06:21:43;100187.93;;;15.32;47.77
51053;BME280;37093;37.716;-122.060;2023-04-08T06:24:12;100183.17;;;15.77;46.99
51053;BME280;37093;37.716;-122.060;2023-04-08T06:26:40;100181.14;;;15.28;47.54
51053;BME280;37093;37.716;-122.060;2023-04-08T06:29:09;100180.17;;;15.70;46.70
51053;BME280;37093;37.716;-122.060;2023-04-08T06:31:38;100178.81;;;15.90;45.98
51053;BME280;37093;37.716;-122.060;2023-04-08T06:34:06;100181.38;;;16.22;45.75
51053;BME280;37093;37.716;-122.060;2023-04-08T06:36:36;100182.50;;;15.89;45.66
51053;BME280;37093;37.716;-122.060;2023-04-08T06:39:04;100184.17;;;15.83;45.29
51053;BME280;37093;37.716;-122.060;2023-04-08T06:41:33;100179.67;;;15.69;45.99
51053;BME280;37093;37.716;-122.060;2023-04-08T06:44:01;100178.10;;;16.07;45.90
51053;BME280;37093;37.716;-122.060;2023-04-08T06:46:30;100179.63;;;15.68;45.95
51053;BME280;37093;37.716;-122.060;2023-04-08T06:48:59;100183.13;;;16.22;45.55
51053;BME280;37093;37.716;-122.060;2023-04-08T06:51:27;100185.63;;;15.80;45.45
51053;BME280;37093;37.716;-122.060;2023-04-08T06:53:56;100183.36;;;16.07;45.21
51053;BME280;37093;37.716;-122.060;2023-04-08T06:56:25;100181.72;;;15.92;45.59
51053;BME280;37093;37.716;-122.060;2023-04-08T06:58:53;100175.97;;;16.24;45.41
51053;BME280;37093;37.716;-122.060;2023-04-08T07:01:10;100172.85;;;15.74;45.72
51053;BME280;37093;37.716;-122.060;2023-04-08T07:03:39;100168.16;;;15.31;43.58
51053;BME280;37093;37.716;-122.060;2023-04-08T07:06:08;100164.28;;;16.97;41.78
51053;BME280;37093;37.716;-122.060;2023-04-08T07:08:37;100166.33;;;17.66;41.36
51053;BME280;37093;37.716;-122.060;2023-04-08T07:11:05;100162.05;;;16.74;42.30
51053;BME280;37093;37.716;-122.060;2023-04-08T07:13:34;100160.16;;;16.47;43.33
51053;BME280;37093;37.716;-122.060;2023-04-08T07:16:02;100164.39;;;16.35;43.76
51053;BME280;37093;37.716;-122.060;2023-04-08T07:18:31;100160.55;;;15.82;44.94
51053;BME280;37093;37.716;-122.060;2023-04-08T07:20:59;100167.00;;;15.71;45.18
51053;BME280;37093;37.716;-122.060;2023-04-08T07:23:28;100170.53;;;15.70;45.63
51053;BME280;37093;37.716;-122.060;2023-04-08T07:26:02;100175.95;;;14.99;46.97
51053;BME280;37093;37.716;-122.060;2023-04-08T07:28:30;100179.76;;;15.10;46.74
51053;BME280;37093;37.716;-122.060;2023-04-08T07:31:09;100185.18;;;15.09;47.32
51053;BME280;37093;37.716;-122.060;2023-04-08T07:33:37;100188.58;;;14.77;47.94
51053;BME280;37093;37.716;-122.060;2023-04-08T07:36:06;100193.45;;;15.24;47.72
51053;BME280;37093;37.716;-122.060;2023-04-08T07:38:36;100193.27;;;14.65;47.59
51053;BME280;37093;37.716;-122.060;2023-04-08T07:41:04;100196.80;;;14.78;47.31
51053;BME280;37093;37.716;-122.060;2023-04-08T07:43:33;100198.51;;;14.78;47.76
51053;BME280;37093;37.716;-122.060;2023-04-08T07:46:01;100199.38;;;14.99;48.19
51053;BME280;37093;37.716;-122.060;2023-04-08T07:48:30;100202.69;;;15.11;47.39
51053;BME280;37093;37.716;-122.060;2023-04-08T07:51:02;100200.87;;;15.50;46.64
51053;BME280;37093;37.716;-122.060;2023-04-08T07:53:30;100208.00;;;15.62;46.22
51053;BME280;37093;37.716;-122.060;2023-04-08T07:55:59;100210.05;;;15.38;46.22
51053;BME280;37093;37.716;-122.060;2023-04-08T07:58:27;100212.21;;;15.85;45.89
51053;BME280;37093;37.716;-122.060;2023-04-08T08:00:55;100215.26;;;15.33;46.83
51053;BME280;37093;37.716;-122.060;2023-04-08T08:03:24;100210.23;;;15.21;47.41
51053;BME280;37093;37.716;-122.060;2023-04-08T08:05:52;100208.41;;;15.65;46.69
51053;BME280;37093;37.716;-122.060;2023-04-08T08:08:21;100201.68;;;15.80;46.54
51053;BME280;37093;37.716;-122.060;2023-04-08T08:10:49;100198.48;;;15.90;45.62
51053;BME280;37093;37.716;-122.060;2023-04-08T08:13:18;100197.49;;;15.85;46.69
51053;BME280;37093;37.716;-122.060;2023-04-08T08:15:47;100193.44;;;15.84;46.39
51053;BME280;37093;37.716;-122.060;2023-04-08T08:18:19;100195.96;;;15.74;45.73
51053;BME280;37093;37.716;-122.060;2023-04-08T08:20:48;100199.04;;;15.85;45.70
51053;BME280;37093;37.716;-122.060;2023-04-08T08:23:16;100198.84;;;16.09;45.63
51053;BME280;37093;37.716;-122.060;2023-04-08T08:25:45;100201.87;;;15.94;45.80
51053;BME280;37093;37.716;-122.060;2023-04-08T08:28:13;100204.15;;;16.12;45.43
51053;BME280;37093;37.716;-122.060;2023-04-08T08:30:42;100203.43;;;16.33;45.41
51053;BME280;37093;37.716;-122.060;2023-04-08T08:33:10;100207.93;;;16.58;45.40
51053;BME280;37093;37.716;-122.060;2023-04-08T08:35:39;100210.18;;;15.66;46.12
51053;BME280;37093;37.716;-122.060;2023-04-08T08:38:08;100202.67;;;15.84;45.66
51053;BME280;37093;37.716;-122.060;2023-04-08T08:40:36;100201.05;;;15.89;45.89
51053;BME280;37093;37.716;-122.060;2023-04-08T08:43:05;100199.46;;;15.50;46.42
51053;BME280;37093;37.716;-122.060;2023-04-08T08:45:33;100199.17;;;15.58;46.48
51053;BME280;37093;37.716;-122.060;2023-04-08T08:48:02;100197.92;;;15.86;46.49
51053;BME280;37093;37.716;-122.060;2023-04-08T08:50:32;100200.45;;;15.62;46.16
51053;BME280;37093;37.716;-122.060;2023-04-08T08:53:00;100198.46;;;15.59;46.37
51053;BME280;37093;37.716;-122.060;2023-04-08T08:55:30;100196.52;;;15.35;47.25
51053;BME280;37093;37.716;-122.060;2023-04-08T08:57:58;100202.69;;;15.65;47.29
51053;BME280;37093;37.716;-122.060;2023-04-08T09:00:35;100209.55;;;15.59;46.59
51053;BME280;37093;37.716;-122.060;2023-04-08T09:03:21;100200.68;;;15.52;46.55
51053;BME280;37093;37.716;-122.060;2023-04-08T09:05:52;100199.76;;;15.90;46.06
51053;BME280;37093;37.716;-122.060;2023-04-08T09:08:24;100197.34;;;15.79;45.83
51053;BME280;37093;37.716;-122.060;2023-04-08T09:10:53;100192.93;;;15.93;45.60
51053;BME280;37093;37.716;-122.060;2023-04-08T09:13:22;100193.43;;;15.91;45.72
51053;BME280;37093;37.716;-122.060;2023-04-08T09:16:08;100198.26;;;15.83;45.54
51053;BME280;37093;37.716;-122.060;2023-04-08T09:18:38;100203.99;;;15.84;45.77
51053;BME280;37093;37.716;-122.060;2023-04-08T09:21:07;100204.43;;;16.06;45.94
51053;BME280;37093;37.716;-122.060;2023-04-08T09:23:40;100202.12;;;15.84;46.22
51053;BME280;37093;37.716;-122.060;2023-04-08T09:26:10;100195.65;;;15.72;45.87
51053;BME280;37093;37.716;-122.060;2023-04-08T09:28:40;100190.41;;;16.22;45.83
51053;BME280;37093;37.716;-122.060;2023-04-08T09:31:19;100191.54;;;16.18;45.79
51053;BME280;37093;37.716;-122.060;2023-04-08T09:33:49;100196.55;;;15.82;46.12
51053;BME280;37093;37.716;-122.060;2023-04-08T09:36:18;100197.21;;;16.18;46.18
51053;BME280;37093;37.716;-122.060;2023-04-08T09:38:47;100201.99;;;15.88;46.27
51053;BME280;37093;37.716;-122.060;2023-04-08T09:41:18;100203.44;;;15.83;46.07
51053;BME280;37093;37.716;-122.060;2023-04-08T09:43:48;100202.76;;;15.62;46.66
51053;BME280;37093;37.716;-122.060;2023-04-08T09:46:20;100210.65;;;15.77;46.25
51053;BME280;37093;37.716;-122.060;2023-04-08T09:49:01;100210.00;;;15.63;46.52
51053;BME280;37093;37.716;-122.060;2023-04-08T09:51:35;100201.58;;;15.99;46.67
51053;BME280;37093;37.716;-122.060;2023-04-08T09:54:12;100194.65;;;15.60;47.58
51053;BME280;37093;37.716;-122.060;2023-04-08T09:56:53;100191.50;;;15.35;47.66
51053;BME280;37093;37.716;-122.060;2023-04-08T09:59:27;100190.77;;;15.57;47.53
51053;BME280;37093;37.716;-122.060;2023-04-08T10:02:02;100183.87;;;15.41;47.54
51053;BME280;37093;37.716;-122.060;2023-04-08T10:04:35;100181.97;;;15.54;47.23
51053;BME280;37093;37.716;-122.060;2023-04-08T10:07:08;100176.21;;;16.08;46.23
51053;BME280;37093;37.716;-122.060;2023-04-08T10:09:36;100181.02;;;16.22;45.26
51053;BME280;37093;37.716;-122.060;2023-04-08T10:12:05;100186.06;;;16.14;44.46
51053;BME280;37093;37.716;-122.060;2023-04-08T10:14:33;100183.83;;;16.31;44.13
51053;BME280;37093;37.716;-122.060;2023-04-08T10:17:33;100186.08;;;16.38;44.01
51053;BME280;37093;37.716;-122.060;2023-04-08T10:20:02;100185.95;;;16.65;43.92
51053;BME280;37093;37.716;-122.060;2023-04-08T10:22:47;100186.75;;;16.46;43.72
51053;BME280;37093;37.716;-122.060;2023-04-08T10:25:33;100176.52;;;16.44;43.66
51053;BME280;37093;37.716;-122.060;2023-04-08T10:28:23;100171.97;;;16.21;43.87
51053;BME280;37093;37.716;-122.060;2023-04-08T10:30:53;100176.74;;;16.24;44.10
51053;BME280;37093;37.716;-122.060;2023-04-08T10:33:24;100177.95;;;16.30;43.88
51053;BME280;37093;37.716;-122.060;2023-04-08T10:36:06;100180.83;;;16.31;43.78
51053;BME280;37093;37.716;-122.060;2023-04-08T10:38:35;100179.53;;;16.30;43.74
51053;BME280;37093;37.716;-122.060;2023-04-08T10:41:04;100178.42;;;16.32;43.72
51053;BME280;37093;37.716;-122.060;2023-04-08T10:43:33;100184.09;;;16.61;43.72
51053;BME280;37093;37.716;-122.060;2023-04-08T10:46:02;100190.50;;;16.31;43.76
51053;BME280;37093;37.716;-122.060;2023-04-08T10:48:30;100190.71;;;16.35;43.74
51053;BME280;37093;37.716;-122.060;2023-04-08T10:51:01;100190.88;;;16.89;43.73
51053;BME280;37093;37.716;-122.060;2023-04-08T10:53:31;100189.90;;;16.34;43.47
51053;BME280;37093;37.716;-122.060;2023-04-08T10:56:04;100192.62;;;16.81;43.28
51053;BME280;37093;37.716;-122.060;2023-04-08T10:58:33;100193.21;;;15.79;44.13
51053;BME280;37093;37.716;-122.060;2023-04-08T11:01:05;100189.68;;;16.10;44.49
51053;BME280;37093;37.716;-122.060;2023-04-08T11:03:35;100191.94;;;16.48;44.60
51053;BME280;37093;37.716;-122.060;2023-04-08T11:06:04;100197.98;;;15.73;45.22
51053;BME280;37093;37.716;-122.060;2023-04-08T11:08:34;100199.40;;;16.04;45.35
51053;BME280;37093;37.716;-122.060;2023-04-08T11:11:03;100201.47;;;15.84;45.58
51053;BME280;37093;37.716;-122.060;2023-04-08T11:13:33;100203.13;;;15.78;45.71
51053;BME280;37093;37.716;-122.060;2023-04-08T11:16:02;100199.72;;;15.30;45.90
51053;BME280;37093;37.716;-122.060;2023-04-08T11:18:31;100203.29;;;15.54;46.00
51053;BME280;37093;37.716;-122.060;2023-04-08T11:21:01;100206.02;;;15.44;46.23
51053;BME280;37093;37.716;-122.060;2023-04-08T11:23:29;100205.91;;;15.21;46.13
51053;BME280;37093;37.716;-122.060;2023-04-08T11:25:58;100203.45;;;15.39;46.22
51053;BME280;37093;37.716;-122.060;2023-04-08T11:28:26;100198.06;;;15.33;46.37
51053;BME280;37093;37.716;-122.060;2023-04-08T11:30:55;100194.59;;;15.28;46.62
51053;BME280;37093;37.716;-122.060;2023-04-08T11:33:25;100185.14;;;15.31;46.41
51053;BME280;37093;37.716;-122.060;2023-04-08T11:35:53;100177.45;;;15.33;46.35
51053;BME280;37093;37.716;-122.060;2023-04-08T11:38:23;100171.60;;;15.24;46.51
51053;BME280;37093;37.716;-122.060;2023-04-08T11:40:53;100165.73;;;14.95;46.63
51053;BME280;37093;37.716;-122.060;2023-04-08T11:43:23;100159.50;;;15.61;46.59
51053;BME280;37093;37.716;-122.060;2023-04-08T11:45:51;100156.92;;;15.01;46.78
51053;BME280;37093;37.716;-122.060;2023-04-08T11:48:20;100155.17;;;14.98;46.73
51053;BME280;37093;37.716;-122.060;2023-04-08T11:51:02;100153.30;;;14.65;47.36
51053;BME280;37093;37.716;-122.060;2023-04-08T11:53:31;100145.95;;;14.84;47.22
51053;BME280;37093;37.716;-122.060;2023-04-08T11:56:16;100137.86;;;15.26;47.09
51053;BME280;37093;37.716;-122.060;2023-04-08T11:58:44;100136.17;;;15.05;47.03
51053;BME280;37093;37.716;-122.060;2023-04-08T12:01:13;100129.29;;;15.06;46.82
51053;BME280;37093;37.716;-122.060;2023-04-08T12:03:54;100135.42;;;14.81;46.80
51053;BME280;37093;37.716;-122.060;2023-04-08T12:06:22;100141.05;;;14.83;46.53
51053;BME280;37093;37.716;-122.060;2023-04-08T12:08:51;100140.72;;;15.28;46.28
51053;BME280;37093;37.716;-122.060;2023-04-08T12:11:20;100140.01;;;15.27;46.49
51053;BME280;37093;37.716;-122.060;2023-04-08T12:13:48;100144.82;;;15.03;46.61
51053;BME280;37093;37.716;-122.060;2023-04-08T12:16:17;100142.56;;;15.28;46.46
51053;BME280;37093;37.716;-122.060;2023-04-08T12:18:46;100141.67;;;14.87;46.75
51053;BME280;37093;37.716;-122.060;2023-04-08T12:21:15;100147.64;;;14.70;46.54
51053;BME280;37093;37.716;-122.060;2023-04-08T12:23:43;100152.21;;;14.98;46.45
51053;BME280;37093;37.716;-122.060;2023-04-08T12:26:12;100160.30;;;14.69;45.49
51053;BME280;37093;37.716;-122.060;2023-04-08T12:28:40;100167.48;;;14.84;46.02
51053;BME280;37093;37.716;-122.060;2023-04-08T12:31:09;100170.73;;;14.73;46.14
51053;BME280;37093;37.716;-122.060;2023-04-08T12:33:37;100178.79;;;14.91;46.01